Time;durP1;ratioP1;P1;durP2;ratioP2;P2;SDS_P1;SDS_P2;PMS_P1;PMS_P2;Temp;Humidity;BMP_temperature;BMP_pressure;BME280_temperature;BME280_humidity;BME280_pressure;Samples;Min_cycle;Max_cycle;Signal;HPM_P1;HPM_P2
2023/10/14 00:01:28;;;;;;;5.65;4.60;;;22.80;46.60;;;;;;4980819;28;20030;-93
2023/10/14 00:03:55;;;;;;;4.35;3.10;;;22.80;46.20;;;;;;4981402;28;20070;-91
2023/10/14 00:06:22;;;;;;;6.93;4.38;;;22.80;46.30;;;;;;4985889;28;20023;-90
2023/10/14 00:11:23;;;;;;;4.53;4.13;;;22.70;47.40;;;;;;4978327;28;20018;-91
2023/10/14 00:13:52;;;;;;;4.80;4.32;;;22.70;47.50;;;;;;4974384;28;20038;-91
2023/10/14 00:16:29;;;;;;;7.72;4.65;;;22.70;48.00;;;;;;4981938;28;20019;-92
2023/10/14 00:19:03;;;;;;;4.70;4.05;;;22.70;48.70;;;;;;4996086;28;20026;-92
2023/10/14 00:21:29;;;;;;;6.90;4.97;;;22.70;49.20;;;;;;4981209;28;20027;-91
2023/10/14 00:24:03;;;;;;;7.28;5.13;;;22.70;49.50;;;;;;4982510;28;20086;-92
2023/10/14 00:26:32;;;;;;;5.95;4.78;;;22.70;50.10;;;;;;4982483;28;20030;-91
2023/10/14 00:29:16;;;;;;;5.00;4.60;;;22.70;50.90;;;;;;4980794;28;20033;-91
2023/10/14 00:31:44;;;;;;;6.50;4.47;;;22.70;50.40;;;;;;4982784;28;20050;-90
2023/10/14 00:34:09;;;;;;;6.57;4.80;;;22.70;50.50;;;;;;4981090;28;20094;-92
2023/10/14 00:36:35;;;;;;;6.32;4.63;;;22.60;50.90;;;;;;4982185;28;20039;-92
2023/10/14 00:39:05;;;;;;;7.03;5.55;;;22.70;51.00;;;;;;4965480;28;20034;-92
2023/10/14 00:41:38;;;;;;;5.40;4.93;;;22.70;51.20;;;;;;4982185;28;20085;-93
2023/10/14 00:44:04;;;;;;;7.15;4.50;;;22.70;51.50;;;;;;4982044;28;20055;-92
2023/10/14 00:46:33;;;;;;;4.93;4.43;;;22.70;51.60;;;;;;4980901;28;20037;-91
2023/10/14 00:49:01;;;;;;;6.07;5.53;;;22.60;52.10;;;;;;4980978;28;20043;-91
2023/10/14 00:51:29;;;;;;;5.50;4.63;;;22.60;53.20;;;;;;4980104;28;20258;-91
2023/10/14 00:54:01;;;;;;;9.27;4.78;;;22.60;53.00;;;;;;4979586;28;20031;-91
2023/10/14 00:56:27;;;;;;;5.90;3.92;;;22.50;53.60;;;;;;4980597;28;20026;-90
2023/10/14 00:58:58;;;;;;;7.60;5.22;;;22.50;53.90;;;;;;4982756;28;20058;-90
2023/10/14 01:01:28;;;;;;;6.47;5.38;;;22.50;54.30;;;;;;4983608;28;20053;-92
2023/10/14 01:04:03;;;;;;;5.88;5.38;;;22.50;54.30;;;;;;4982541;28;20026;-92
2023/10/14 01:06:34;;;;;;;7.18;5.75;;;22.50;54.90;;;;;;4983127;28;20050;-94
2023/10/14 01:09:10;;;;;;;7.97;5.25;;;22.50;55.70;;;;;;4982374;28;20030;-92
2023/10/14 01:11:37;;;;;;;5.72;4.80;;;22.50;56.00;;;;;;4981882;28;20389;-91
2023/10/14 01:14:07;;;;;;;5.45;4.95;;;22.50;56.10;;;;;;4983282;28;20023;-92
2023/10/14 01:16:36;;;;;;;6.57;5.90;;;22.50;56.70;;;;;;4981326;28;20046;-91
2023/10/14 01:19:03;;;;;;;5.78;5.28;;;22.40;57.10;;;;;;4975910;28;20027;-91
2023/10/14 01:21:28;;;;;;;8.82;5.85;;;22.40;57.50;;;;;;4973857;28;20024;-91
2023/10/14 01:23:58;;;;;;;7.70;6.82;;;22.40;57.90;;;;;;4970813;28;20031;-92
2023/10/14 01:26:25;;;;;;;7.47;6.13;;;22.40;58.40;;;;;;4973625;28;20031;-91
2023/10/14 01:28:59;;;;;;;5.95;4.85;;;22.40;58.70;;;;;;4973570;28;20027;-92
2023/10/14 01:31:42;;;;;;;7.90;5.95;;;22.30;59.20;;;;;;4980496;28;20035;-93
2023/10/14 01:34:08;;;;;;;13.32;6.20;;;22.40;59.40;;;;;;4975483;28;20074;-91
2023/10/14 01:36:37;;;;;;;9.63;6.90;;;22.30;59.80;;;;;;4971853;28;20027;-92
2023/10/14 01:39:11;;;;;;;10.35;6.90;;;22.30;60.10;;;;;;4981359;28;20019;-92
2023/10/14 01:41:37;;;;;;;8.77;6.07;;;22.30;61.10;;;;;;4997275;28;20031;-92
2023/10/14 01:44:05;;;;;;;8.43;6.35;;;22.20;61.80;;;;;;4981377;28;20055;-92
2023/10/14 01:46:34;;;;;;;9.35;6.50;;;22.20;61.70;;;;;;4979812;28;20137;-92
2023/10/14 01:49:03;;;;;;;6.75;6.05;;;22.10;62.40;;;;;;4978593;28;20439;-92
2023/10/14 01:51:33;;;;;;;6.93;6.18;;;22.10;62.10;;;;;;4984047;28;20015;-91
2023/10/14 01:53:59;;;;;;;12.13;6.07;;;22.00;61.90;;;;;;4983367;28;20050;-92
2023/10/14 01:56:27;;;;;;;8.63;6.57;;;22.00;62.00;;;;;;4979822;28;20022;-92
2023/10/14 01:58:57;;;;;;;9.32;5.72;;;22.00;61.90;;;;;;4978507;28;20015;-92
2023/10/14 02:01:23;;;;;;;9.63;6.53;;;22.00;62.00;;;;;;4980677;28;20105;-92
2023/10/14 02:03:52;;;;;;;7.85;7.10;;;22.00;62.30;;;;;;4980535;28;20094;-91
2023/10/14 02:06:20;;;;;;;9.65;7.00;;;22.00;62.50;;;;;;4981239;28;20030;-92
2023/10/14 02:08:52;;;;;;;11.27;7.80;;;22.00;62.60;;;;;;4964192;28;20034;-92
2023/10/14 02:11:23;;;;;;;12.55;7.22;;;22.00;62.70;;;;;;4969515;28;20489;-92
2023/10/14 02:13:50;;;;;;;8.13;6.50;;;22.00;62.90;;;;;;4972682;28;20027;-92
2023/10/14 02:16:18;;;;;;;10.10;6.75;;;22.00;63.10;;;;;;4978908;28;20050;-92
2023/10/14 02:18:43;;;;;;;8.88;7.72;;;22.00;63.40;;;;;;4977778;28;20062;-93
2023/10/14 02:21:16;;;;;;;8.95;6.45;;;21.90;63.60;;;;;;4979389;28;20034;-91
2023/10/14 02:23:45;;;;;;;10.63;6.60;;;21.90;63.90;;;;;;4979520;28;20022;-92
2023/10/14 02:26:32;;;;;;;11.32;6.90;;;21.90;64.20;;;;;;4964165;28;20063;-92
2023/10/14 02:28:58;;;;;;;9.40;6.38;;;21.90;64.50;;;;;;4972529;28;20054;-92
2023/10/14 02:34:00;;;;;;;7.68;6.50;;;21.90;65.20;;;;;;4980501;28;20023;-92
2023/10/14 02:36:28;;;;;;;7.50;6.80;;;21.80;65.50;;;;;;4980408;28;20022;-93
2023/10/14 02:38:56;;;;;;;8.30;7.07;;;21.80;65.90;;;;;;4980057;28;20031;-90
2023/10/14 02:41:26;;;;;;;8.05;7.25;;;21.80;65.90;;;;;;4965190;28;20074;-92
2023/10/14 02:44:28;;;;;;;9.50;7.15;;;21.80;66.10;;;;;;4967166;28;20023;-93
2023/10/14 02:46:54;;;;;;;7.80;6.13;;;21.70;66.10;;;;;;4969360;28;20490;-91
2023/10/14 02:49:24;;;;;;;8.00;6.68;;;21.70;66.40;;;;;;4978625;28;20153;-93
2023/10/14 02:51:52;;;;;;;8.30;6.22;;;21.70;66.40;;;;;;4980010;28;20157;-92
2023/10/14 02:54:27;;;;;;;9.27;6.50;;;21.70;66.90;;;;;;4980378;28;20019;-92
2023/10/14 02:59:36;;;;;;;11.13;6.63;;;21.70;67.10;;;;;;4979046;28;20038;-91
2023/10/14 03:02:14;;;;;;;8.13;7.32;;;21.60;67.30;;;;;;4979137;28;20026;-94
2023/10/14 03:07:44;;;;;;;11.18;6.95;;;21.70;67.50;;;;;;4984091;28;20031;-92
2023/10/14 03:12:39;;;;;;;7.38;6.50;;;21.60;67.60;;;;;;4982701;28;20030;-92
2023/10/14 03:15:18;;;;;;;9.70;7.03;;;21.60;67.90;;;;;;4981980;28;20055;-93
2023/10/14 03:17:58;;;;;;;10.85;8.15;;;21.60;67.70;;;;;;4991126;28;20007;-92
2023/10/14 03:21:00;;;;;;;10.68;5.07;;;21.60;69.40;;;;;;4986314;28;20037;-89
2023/10/14 03:23:18;;;;;;;;;;;;;;;;;;;;;
2023/10/14 03:25:49;;;;;;;5.85;4.45;;;17.70;99.90;;;;;;4977345;28;20027;-90
2023/10/14 03:28:16;;;;;;;7.20;5.00;;;17.20;99.90;;;;;;4979425;28;20027;-89
2023/10/14 03:30:46;;;;;;;9.65;5.90;;;17.00;99.90;;;;;;4983887;28;20490;-89
2023/10/14 03:33:14;;;;;;;7.68;3.92;;;17.00;99.90;;;;;;4983050;28;20027;-90
2023/10/14 03:35:42;;;;;;;6.40;4.22;;;17.00;99.90;;;;;;4975890;28;20023;-90
2023/10/14 03:38:15;;;;;;;;;;;17.00;99.90;;;;;;4966378;28;20027;-89
2023/10/14 03:43:16;;;;;;;7.82;3.88;;;17.00;99.90;;;;;;4983812;28;20031;-91
2023/10/14 03:45:48;;;;;;;6.57;4.15;;;17.10;99.90;;;;;;4975426;28;20022;-89
2023/10/14 03:48:15;;;;;;;8.10;4.95;;;17.10;99.90;;;;;;4984432;28;20026;-91
2023/10/14 03:50:40;;;;;;;7.97;4.75;;;17.10;99.90;;;;;;4983535;28;20474;-89
2023/10/14 03:53:06;;;;;;;3.67;3.35;;;17.20;99.90;;;;;;4971129;28;20038;-90
2023/10/14 03:55:32;;;;;;;5.72;4.93;;;17.20;99.90;;;;;;4969952;28;20093;-88
2023/10/14 03:58:04;;;;;;;6.30;5.47;;;17.20;99.90;;;;;;4963048;29;20031;-90
2023/10/14 04:00:37;;;;;;;5.65;4.50;;;17.20;99.90;;;;;;4967150;28;20061;-88
2023/10/14 04:03:11;;;;;;;4.82;3.58;;;17.30;99.90;;;;;;4984250;28;20047;-90
2023/10/14 04:05:41;;;;;;;5.63;2.45;;;17.30;99.90;;;;;;4968202;28;20382;-89
2023/10/14 04:08:08;;;;;;;5.28;4.30;;;17.30;99.90;;;;;;4979071;28;20022;-90
2023/10/14 04:10:38;;;;;;;5.70;4.90;;;17.30;99.90;;;;;;4984763;28;20019;-91
2023/10/14 04:13:12;;;;;;;5.22;3.53;;;17.30;99.90;;;;;;4986694;28;20030;-92
2023/10/14 04:15:50;;;;;;;5.45;4.53;;;17.30;99.90;;;;;;5001726;28;20054;-90
2023/10/14 04:18:24;;;;;;;5.65;5.03;;;17.30;99.90;;;;;;4969148;28;20054;-91
2023/10/14 04:30:11;;;;;;;5.00;4.60;;;17.40;99.90;;;;;;4945933;29;20046;-91
2023/10/14 04:33:23;;;;;;;5.88;4.25;;;17.40;99.90;;;;;;4985502;28;20035;-91
2023/10/14 04:38:58;;;;;;;7.68;5.00;;;17.40;99.90;;;;;;4967690;28;20083;-89
2023/10/14 04:41:31;;;;;;;5.20;4.75;;;17.50;99.90;;;;;;4953727;28;20031;-91
2023/10/14 04:44:02;;;;;;;5.70;4.07;;;17.60;99.90;;;;;;4986133;28;20049;-91
2023/10/14 04:46:46;;;;;;;4.28;2.60;;;17.60;99.90;;;;;;4968780;28;20409;-90
2023/10/14 04:49:15;;;;;;;5.15;4.65;;;17.50;99.90;;;;;;4965219;28;20066;-92
2023/10/14 04:51:49;;;;;;;6.38;3.97;;;17.50;99.90;;;;;;4969489;28;20023;-90
2023/10/14 04:54:22;;;;;;;6.78;3.35;;;17.50;99.90;;;;;;4969741;28;20027;-92
2023/10/14 04:56:57;;;;;;;7.40;5.00;;;17.50;99.90;;;;;;4965402;28;20117;-91
2023/10/14 04:59:36;;;;;;;4.18;3.67;;;17.40;99.90;;;;;;4967475;28;20043;-89
2023/10/14 05:02:11;;;;;;;5.60;4.15;;;17.50;99.90;;;;;;4986685;28;20047;-90
2023/10/14 05:04:42;;;;;;;5.72;4.43;;;17.60;99.70;;;;;;4970255;28;20058;-92
2023/10/14 05:07:11;;;;;;;4.43;4.05;;;17.60;99.80;;;;;;4986461;28;20037;-91
2023/10/14 05:09:40;;;;;;;3.97;3.55;;;17.60;99.70;;;;;;4978400;28;20027;-91
2023/10/14 05:12:17;;;;;;;4.90;3.10;;;17.60;98.90;;;;;;4970040;28;20027;-91
2023/10/14 05:14:43;;;;;;;5.32;4.38;;;17.60;99.10;;;;;;4970364;28;20023;-93
2023/10/14 05:19:48;;;;;;;4.25;3.30;;;17.60;99.30;;;;;;4985456;28;20077;-93
2023/10/14 05:22:24;;;;;;;3.60;3.25;;;17.60;99.30;;;;;;4971870;28;20039;-92
2023/10/14 05:24:54;;;;;;;6.80;4.03;;;17.60;99.60;;;;;;4966978;29;20030;-92
2023/10/14 05:27:21;;;;;;;4.45;3.15;;;17.70;99.10;;;;;;4999942;28;20018;-90
2023/10/14 05:29:55;;;;;;;5.45;3.90;;;17.70;98.40;;;;;;5000034;28;20033;-91
2023/10/14 05:32:24;;;;;;;;;;;17.70;99.00;;;;;;4968278;28;20019;-93
2023/10/14 05:35:09;;;;;;;;;;;17.70;97.90;;;;;;4971599;28;19913;-92
2023/10/14 05:37:35;;;;;;;5.63;2.40;;;17.70;98.30;;;;;;4979099;28;20392;-94
2023/10/14 05:40:01;;;;;;;4.07;3.85;;;17.70;98.00;;;;;;4979030;28;20046;-92
2023/10/14 05:42:27;;;;;;;3.50;3.20;;;17.70;98.10;;;;;;4967800;28;20023;-93
2023/10/14 05:45:01;;;;;;;4.07;3.63;;;17.70;97.70;;;;;;4955595;29;20038;-93
2023/10/14 05:47:27;;;;;;;;;;;17.70;97.80;;;;;;4984383;28;20018;-92
2023/10/14 05:49:53;;;;;;;4.43;2.95;;;17.70;97.40;;;;;;4987038;28;19942;-91
2023/10/14 05:52:24;;;;;;;6.32;4.03;;;17.70;97.60;;;;;;4973502;28;20027;-93
2023/10/14 05:54:50;;;;;;;5.38;2.75;;;17.70;97.20;;;;;;4973711;28;20015;-93
2023/10/14 05:57:17;;;;;;;3.92;2.83;;;17.70;97.00;;;;;;4965716;28;20045;-92
2023/10/14 05:59:43;;;;;;;4.80;3.30;;;17.70;97.40;;;;;;4967583;28;20027;-93
2023/10/14 06:02:12;;;;;;;3.72;2.72;;;17.70;97.10;;;;;;4984274;28;20489;-93
2023/10/14 06:04:42;;;;;;;4.28;3.95;;;17.70;96.70;;;;;;4955879;28;20034;-91
2023/10/14 06:07:12;;;;;;;4.22;2.47;;;17.70;96.80;;;;;;4979223;28;20086;-95
2023/10/14 06:09:38;;;;;;;2.72;1.15;;;17.70;95.90;;;;;;4984520;28;20401;-93
2023/10/14 06:12:06;;;;;;;2.92;2.15;;;17.80;95.10;;;;;;4966331;28;20034;-93
2023/10/14 06:14:33;;;;;;;4.05;2.70;;;17.80;96.10;;;;;;4981848;28;20034;-93
2023/10/14 06:16:59;;;;;;;;;;;17.80;95.10;;;;;;4983730;28;20106;-93
2023/10/14 06:19:25;;;;;;;2.75;2.45;;;17.90;94.60;;;;;;4984196;28;19905;-92
2023/10/14 06:21:51;;;;;;;4.07;2.90;;;17.90;94.80;;;;;;4984158;28;20023;-93
2023/10/14 06:24:17;;;;;;;2.75;2.55;;;17.90;94.30;;;;;;4983126;28;20031;-94
2023/10/14 06:26:42;;;;;;;3.35;3.00;;;18.00;94.60;;;;;;4983826;28;20030;-94
2023/10/14 06:29:09;;;;;;;2.65;2.45;;;18.00;94.30;;;;;;4982447;28;20026;-94
2023/10/14 06:31:40;;;;;;;3.17;2.35;;;18.00;94.20;;;;;;4980659;28;20027;-91
2023/10/14 06:34:09;;;;;;;2.35;2.17;;;18.00;93.20;;;;;;4977460;28;20303;-94
2023/10/14 06:36:35;;;;;;;3.65;2.10;;;18.00;93.80;;;;;;4983232;28;20027;-92
2023/10/14 06:39:13;;;;;;;3.50;2.30;;;18.10;93.30;;;;;;4981759;28;20161;-93
2023/10/14 06:41:43;;;;;;;2.33;2.08;;;18.10;92.90;;;;;;4974069;28;20031;-92
2023/10/14 06:44:13;;;;;;;3.17;1.95;;;18.10;92.90;;;;;;4981408;28;20031;-92
2023/10/14 06:46:38;;;;;;;3.30;2.13;;;18.10;93.20;;;;;;4997788;28;20035;-92
2023/10/14 06:49:13;;;;;;;2.15;1.95;;;18.10;93.00;;;;;;4988571;28;20572;-91
2023/10/14 06:51:43;;;;;;;2.55;2.10;;;18.10;93.30;;;;;;4988489;28;20041;-93
2023/10/14 06:54:09;;;;;;;2.72;2.22;;;18.20;93.30;;;;;;4984406;28;20054;-92
2023/10/14 06:56:40;;;;;;;2.65;2.42;;;18.10;93.40;;;;;;4974982;28;20113;-91
2023/10/14 06:59:06;;;;;;;2.30;2.13;;;18.20;93.40;;;;;;4996547;28;20035;-92
2023/10/14 07:01:33;;;;;;;1.52;1.02;;;18.10;93.30;;;;;;4981768;28;20412;-92
2023/10/14 07:04:00;;;;;;;3.72;2.65;;;18.10;93.60;;;;;;4981413;28;20023;-92
2023/10/14 07:06:27;;;;;;;4.13;3.78;;;18.20;93.10;;;;;;4980261;28;20030;-92
2023/10/14 07:08:53;;;;;;;2.45;2.30;;;18.20;93.60;;;;;;4994293;28;20034;-92
2023/10/14 07:11:18;;;;;;;2.00;1.40;;;18.20;93.40;;;;;;4967372;28;20090;-93
2023/10/14 07:13:46;;;;;;;2.67;2.03;;;18.20;93.30;;;;;;4981877;28;20027;-92
2023/10/14 07:16:11;;;;;;;2.50;2.20;;;18.10;94.00;;;;;;4988336;28;20027;-95
2023/10/14 07:18:38;;;;;;;3.25;2.00;;;18.10;94.50;;;;;;4982086;28;20057;-92
2023/10/14 07:21:08;;;;;;;4.07;2.80;;;18.10;94.70;;;;;;4982839;28;20027;-93
2023/10/14 07:23:34;;;;;;;1.85;1.73;;;18.00;94.40;;;;;;4963297;28;20034;-91
2023/10/14 07:26:13;;;;;;;3.22;2.17;;;18.00;94.60;;;;;;4963685;28;20045;-92
2023/10/14 07:28:43;;;;;;;2.55;2.45;;;18.00;98.10;;;;;;4964927;28;20515;-90
2023/10/14 07:31:12;;;;;;;2.17;2.08;;;17.80;99.90;;;;;;4972646;28;20117;-89
2023/10/14 07:33:39;;;;;;;2.95;1.73;;;17.60;99.90;;;;;;4972854;28;20023;-92
2023/10/14 07:36:06;;;;;;;2.40;2.17;;;17.50;99.90;;;;;;4984899;28;20058;-93
2023/10/14 07:38:33;;;;;;;;;;;17.30;99.90;;;;;;4979578;28;20074;-92
2023/10/14 07:41:01;;;;;;;1.77;1.60;;;17.20;99.90;;;;;;4976858;28;19910;-92
2023/10/14 07:43:27;;;;;;;3.15;2.25;;;17.10;99.90;;;;;;4989285;28;20604;-90
2023/10/14 07:45:53;;;;;;;7.30;4.13;;;17.10;99.90;;;;;;4963623;28;20030;-91
2023/10/14 07:48:19;;;;;;;4.35;2.42;;;16.90;99.90;;;;;;4979831;28;20038;-90
2023/10/14 07:50:48;;;;;;;8.77;2.35;;;16.80;99.90;;;;;;4963225;28;20019;-91
2023/10/14 07:53:17;;;;;;;2.42;1.75;;;16.60;99.90;;;;;;4977613;28;20033;-92
2023/10/14 07:55:51;;;;;;;1.77;1.58;;;16.40;99.90;;;;;;4977524;28;20113;-90
2023/10/14 07:58:23;;;;;;;1.75;1.65;;;16.30;99.90;;;;;;4978971;28;20026;-91
2023/10/14 08:00:49;;;;;;;1.55;1.45;;;16.30;99.90;;;;;;4983008;28;20109;-91
2023/10/14 08:03:20;;;;;;;2.05;1.92;;;16.30;99.90;;;;;;4973454;28;20031;-89
2023/10/14 08:05:54;;;;;;;2.70;2.15;;;16.40;99.90;;;;;;4971549;28;20604;-92
2023/10/14 08:08:21;;;;;;;2.22;1.65;;;16.40;99.90;;;;;;4959331;28;20031;-90
2023/10/14 08:10:49;;;;;;;2.05;1.52;;;16.40;99.90;;;;;;4983211;28;20031;-89
2023/10/14 08:13:22;;;;;;;2.58;2.35;;;16.40;99.90;;;;;;4964684;28;20022;-92
2023/10/14 08:15:52;;;;;;;2.85;2.47;;;16.40;99.90;;;;;;4981633;28;20109;-91
2023/10/14 08:18:25;;;;;;;3.13;2.47;;;16.40;99.90;;;;;;4980641;28;20054;-91
2023/10/14 08:20:53;;;;;;;2.75;1.55;;;16.40;99.90;;;;;;4980250;28;20023;-91
2023/10/14 08:23:20;;;;;;;1.95;1.33;;;16.40;99.90;;;;;;4977904;28;20034;-89
2023/10/14 08:25:47;;;;;;;1.92;1.35;;;16.40;99.90;;;;;;4976367;28;20039;-91
2023/10/14 08:28:13;;;;;;;2.33;1.98;;;16.40;99.90;;;;;;4974139;28;20026;-92
2023/10/14 08:30:45;;;;;;;2.63;2.40;;;16.40;99.90;;;;;;4983470;28;20025;-90
2023/10/14 08:33:15;;;;;;;2.85;2.20;;;16.30;99.90;;;;;;4986482;28;20047;-89
2023/10/14 08:35:44;;;;;;;2.08;1.98;;;16.30;99.90;;;;;;4980605;28;20054;-91
2023/10/14 08:38:19;;;;;;;1.55;1.33;;;16.40;99.90;;;;;;4979757;28;20261;-90
2023/10/14 08:40:49;;;;;;;0.75;0.60;;;16.40;99.90;;;;;;4973128;28;20448;-90
2023/10/14 08:43:17;;;;;;;1.58;1.55;;;16.40;99.90;;;;;;4965061;28;20058;-90
2023/10/14 08:46:05;;;;;;;1.85;1.75;;;16.40;99.90;;;;;;4967176;28;20051;-91
2023/10/14 08:48:32;;;;;;;1.50;1.40;;;16.40;99.90;;;;;;4967103;28;20074;-90
2023/10/14 08:50:58;;;;;;;2.22;1.58;;;16.30;99.90;;;;;;4967176;28;20093;-90
2023/10/14 08:53:25;;;;;;;3.00;1.83;;;16.40;99.90;;;;;;4970973;28;20026;-90
2023/10/14 08:55:54;;;;;;;2.25;2.15;;;16.50;99.90;;;;;;4965250;28;20059;-91
2023/10/14 08:58:23;;;;;;;2.20;2.00;;;16.50;99.90;;;;;;4964353;28;20031;-91
2023/10/14 09:00:51;;;;;;;2.50;2.33;;;16.60;99.90;;;;;;4970732;28;20558;-89
2023/10/14 09:03:17;;;;;;;2.80;2.60;;;16.70;99.90;;;;;;4953940;28;20050;-89
2023/10/14 09:05:44;;;;;;;2.10;1.88;;;16.70;99.90;;;;;;4969930;28;20049;-92
2023/10/14 09:08:19;;;;;;;1.90;1.80;;;16.80;99.90;;;;;;4968565;28;20050;-91
2023/10/14 09:10:45;;;;;;;2.42;2.22;;;16.80;99.90;;;;;;4969285;28;20042;-91
2023/10/14 09:13:13;;;;;;;2.45;2.25;;;16.80;99.90;;;;;;4970554;28;20023;-91
2023/10/14 09:15:43;;;;;;;2.13;2.03;;;16.90;99.90;;;;;;4966471;28;20034;-90
2023/10/14 09:18:17;;;;;;;1.30;1.20;;;16.80;99.90;;;;;;4969557;28;20037;-91
2023/10/14 09:20:43;;;;;;;;;;;16.70;99.90;;;;;;4970469;28;20028;-91
2023/10/14 09:23:18;;;;;;;2.22;2.10;;;16.60;99.90;;;;;;4950781;28;19918;-93
2023/10/14 09:25:58;;;;;;;1.58;1.48;;;16.60;99.90;;;;;;4966401;28;20043;-90
2023/10/14 09:28:24;;;;;;;2.13;1.30;;;16.60;99.90;;;;;;4967091;28;20103;-89
2023/10/14 09:30:51;;;;;;;1.88;1.77;;;16.50;99.90;;;;;;4968749;28;20547;-94
2023/10/14 09:33:27;;;;;;;2.80;2.60;;;16.50;99.90;;;;;;4968500;28;20038;-92
2023/10/14 09:35:54;;;;;;;0.98;0.40;;;16.50;99.90;;;;;;4975077;28;20452;-91
2023/10/14 09:38:22;;;;;;;2.58;2.30;;;16.40;99.90;;;;;;4967954;28;20543;-90
2023/10/14 09:40:57;;;;;;;3.22;3.03;;;16.40;99.90;;;;;;4968207;28;20615;-90
2023/10/14 09:43:27;;;;;;;2.53;2.33;;;16.50;99.90;;;;;;4971547;28;20027;-94
2023/10/14 09:45:57;;;;;;;2.92;2.83;;;16.50;99.90;;;;;;4973949;28;20082;-89
2023/10/14 09:48:27;;;;;;;1.55;1.40;;;16.50;99.90;;;;;;4973933;28;20157;-90
2023/10/14 09:50:56;;;;;;;2.30;2.20;;;16.40;99.90;;;;;;4973094;28;20030;-90
2023/10/14 09:53:27;;;;;;;2.45;2.35;;;16.40;99.90;;;;;;4968515;28;20035;-91
2023/10/14 09:55:56;;;;;;;2.20;1.98;;;16.30;99.90;;;;;;4965832;28;20097;-88
2023/10/14 09:58:24;;;;;;;2.65;2.45;;;16.30;99.90;;;;;;4969517;28;20038;-90
2023/10/14 10:00:50;;;;;;;2.72;2.58;;;16.20;99.90;;;;;;4966266;28;20511;-91
2023/10/14 10:03:19;;;;;;;2.03;1.88;;;16.30;99.90;;;;;;4965304;28;20043;-89
2023/10/14 10:06:05;;;;;;;2.78;1.92;;;16.20;99.90;;;;;;4967563;28;20034;-89
2023/10/14 10:08:49;;;;;;;2.00;1.90;;;16.30;99.90;;;;;;4967832;28;20039;-90
2023/10/14 10:11:23;;;;;;;2.15;2.00;;;16.20;99.90;;;;;;4968098;28;20101;-89
2023/10/14 10:13:53;;;;;;;3.42;2.13;;;16.30;99.90;;;;;;4963682;28;20039;-92
2023/10/14 10:16:20;;;;;;;1.30;1.17;;;16.30;99.90;;;;;;4961807;28;20035;-93
2023/10/14 10:18:56;;;;;;;2.05;1.83;;;16.30;99.90;;;;;;4964171;28;20065;-88
2023/10/14 10:21:30;;;;;;;2.45;2.13;;;16.20;99.90;;;;;;4965075;28;20034;-90
2023/10/14 10:24:09;;;;;;;1.88;1.67;;;16.20;99.90;;;;;;4965464;28;20026;-89
2023/10/14 10:27:04;;;;;;;2.40;2.20;;;16.20;99.90;;;;;;4963915;28;20031;-91
2023/10/14 10:29:41;;;;;;;2.72;1.58;;;16.20;99.90;;;;;;4964891;28;20031;-91
2023/10/14 10:32:11;;;;;;;1.45;1.35;;;16.10;99.90;;;;;;4963090;28;20030;-90
2023/10/14 10:35:09;;;;;;;2.40;2.20;;;16.00;99.90;;;;;;4968131;28;20105;-91
2023/10/14 10:37:54;;;;;;;2.00;1.90;;;16.00;99.90;;;;;;4947724;28;20026;-92
2023/10/14 10:40:29;;;;;;;2.50;1.45;;;16.00;99.90;;;;;;4968238;28;20106;-90
2023/10/14 10:43:11;;;;;;;2.58;1.77;;;15.90;99.90;;;;;;4963005;28;20050;-90
2023/10/14 10:45:42;;;;;;;1.67;1.58;;;15.80;99.90;;;;;;4946067;28;20059;-91
2023/10/14 10:48:14;;;;;;;2.15;1.80;;;15.80;99.90;;;;;;4945312;28;20035;-92
2023/10/14 10:50:41;;;;;;;2.75;1.83;;;15.80;99.90;;;;;;4965298;28;20125;-90
2023/10/14 10:53:10;;;;;;;1.33;1.23;;;15.80;99.90;;;;;;4968737;28;20038;-89
2023/10/14 10:55:41;;;;;;;2.35;1.92;;;15.80;99.90;;;;;;4948368;28;20031;-91
2023/10/14 10:58:14;;;;;;;1.70;1.60;;;15.80;99.90;;;;;;4897516;28;20070;-95
2023/10/14 11:00:43;;;;;;;1.77;1.67;;;15.80;99.90;;;;;;4949589;29;20039;-92
2023/10/14 11:03:14;;;;;;;2.88;2.78;;;15.80;99.90;;;;;;4950731;29;20114;-90
2023/10/14 11:05:41;;;;;;;1.50;1.40;;;15.80;99.90;;;;;;4949214;29;20411;-90
2023/10/14 11:08:07;;;;;;;1.55;1.45;;;15.80;99.90;;;;;;4950137;28;20039;-90
2023/10/14 11:10:38;;;;;;;2.33;2.22;;;15.80;99.90;;;;;;4956791;29;20027;-90
2023/10/14 11:13:06;;;;;;;1.98;1.88;;;15.90;99.90;;;;;;4960087;29;20020;-90
2023/10/14 11:15:33;;;;;;;2.10;2.00;;;15.90;99.90;;;;;;4954358;28;20027;-90
2023/10/14 11:18:00;;;;;;;1.30;1.23;;;16.00;99.90;;;;;;4952417;29;20074;-91
2023/10/14 11:20:32;;;;;;;1.88;1.77;;;16.10;99.90;;;;;;4955100;29;20042;-91
2023/10/14 11:22:59;;;;;;;2.15;2.05;;;16.20;99.90;;;;;;4958387;29;20656;-92
2023/10/14 11:25:27;;;;;;;2.60;2.38;;;16.30;99.90;;;;;;4952596;28;20041;-90
2023/10/14 11:27:54;;;;;;;2.42;2.33;;;16.20;99.90;;;;;;4958494;29;20023;-91
2023/10/14 11:30:20;;;;;;;3.25;3.05;;;16.10;99.90;;;;;;4961295;29;20026;-94
2023/10/14 11:32:51;;;;;;;2.85;2.08;;;15.90;99.90;;;;;;4959070;29;20877;-92
2023/10/14 11:35:21;;;;;;;3.55;3.35;;;15.90;99.90;;;;;;4962912;28;19999;-90
2023/10/14 11:37:55;;;;;;;2.95;2.83;;;15.80;99.90;;;;;;4956795;28;20015;-90
2023/10/14 11:40:25;;;;;;;3.25;2.10;;;15.80;99.80;;;;;;4966014;29;20011;-94
2023/10/14 11:42:55;;;;;;;2.17;2.08;;;15.80;99.90;;;;;;4978295;28;20153;-92
2023/10/14 11:45:21;;;;;;;1.52;1.42;;;15.80;99.90;;;;;;4955732;28;20111;-90
2023/10/14 11:47:48;;;;;;;2.92;2.75;;;15.80;99.10;;;;;;4956870;28;20031;-92
2023/10/14 11:50:17;;;;;;;1.98;1.38;;;15.70;94.60;;;;;;4957350;29;20083;-93
2023/10/14 11:52:46;;;;;;;1.92;1.80;;;15.80;93.90;;;;;;4958048;29;20027;-91
2023/10/14 11:55:14;;;;;;;2.20;2.10;;;15.70;93.90;;;;;;4957268;29;20039;-92
2023/10/14 11:57:44;;;;;;;2.33;2.22;;;15.60;93.60;;;;;;4954710;29;20083;-94
2023/10/14 12:00:12;;;;;;;2.05;1.95;;;15.50;92.70;;;;;;4950197;29;20027;-93
2023/10/14 12:02:40;;;;;;;2.45;2.28;;;15.50;94.60;;;;;;4953471;29;20570;-92
2023/10/14 12:05:07;;;;;;;1.92;1.83;;;15.50;92.20;;;;;;4955091;29;20031;-90
2023/10/14 12:07:33;;;;;;;3.15;2.85;;;15.60;93.30;;;;;;4947745;29;20047;-93
2023/10/14 12:10:04;;;;;;;1.75;1.65;;;15.60;94.10;;;;;;4952224;28;20031;-93
2023/10/14 12:12:29;;;;;;;3.17;1.95;;;15.60;96.40;;;;;;4952086;29;20039;-91
2023/10/14 12:14:55;;;;;;;2.38;2.28;;;15.80;98.00;;;;;;4954543;28;20027;-93
2023/10/14 12:17:23;;;;;;;2.40;1.60;;;15.80;93.20;;;;;;4949705;29;20050;-96
2023/10/14 12:19:49;;;;;;;1.75;1.63;;;15.90;94.50;;;;;;4953412;29;20076;-92
2023/10/14 12:22:15;;;;;;;2.47;2.28;;;15.90;89.80;;;;;;4955277;29;20590;-91
2023/10/14 12:24:41;;;;;;;2.13;1.50;;;15.90;88.50;;;;;;4951714;29;20031;-93
2023/10/14 12:27:13;;;;;;;2.65;2.55;;;15.90;85.70;;;;;;4949961;29;20031;-91
2023/10/14 12:29:40;;;;;;;2.42;1.88;;;16.00;94.00;;;;;;4952343;29;20122;-90
2023/10/14 12:32:12;;;;;;;1.98;1.83;;;16.10;98.50;;;;;;4965581;28;20036;-92
2023/10/14 12:34:43;;;;;;;2.55;2.15;;;16.00;99.90;;;;;;4950284;29;20026;-92
2023/10/14 12:37:19;;;;;;;1.90;1.77;;;16.00;99.90;;;;;;4962205;28;20024;-92
2023/10/14 12:39:49;;;;;;;2.25;2.05;;;15.90;97.10;;;;;;4968762;28;20482;-92
2023/10/14 12:42:16;;;;;;;1.73;1.58;;;15.80;99.20;;;;;;4958604;28;20027;-94
2023/10/14 12:44:42;;;;;;;2.38;2.17;;;15.60;98.30;;;;;;4959887;29;20571;-92
2023/10/14 12:47:11;;;;;;;2.55;1.85;;;15.50;98.40;;;;;;4954922;28;20110;-92
2023/10/14 12:49:40;;;;;;;3.38;2.03;;;15.50;98.00;;;;;;4953947;29;20027;-92
2023/10/14 12:52:12;;;;;;;3.70;3.50;;;15.50;98.10;;;;;;4952077;29;20078;-92
2023/10/14 12:54:39;;;;;;;3.05;1.92;;;15.60;96.70;;;;;;4953282;28;20418;-91
2023/10/14 12:57:05;;;;;;;3.67;2.00;;;15.60;94.60;;;;;;4967893;28;20020;-92
2023/10/14 12:59:32;;;;;;;3.13;1.95;;;15.80;92.80;;;;;;4952309;28;20063;-92
2023/10/14 13:02:00;;;;;;;2.05;1.95;;;16.00;92.30;;;;;;4967365;28;20054;-90
2023/10/14 13:04:29;;;;;;;3.10;2.35;;;16.10;91.30;;;;;;4952295;29;20070;-92
2023/10/14 13:06:56;;;;;;;3.53;3.22;;;16.00;88.60;;;;;;4950560;29;20026;-92
2023/10/14 13:09:27;;;;;;;2.42;1.75;;;15.80;87.70;;;;;;4964370;28;20124;-91
2023/10/14 13:11:55;;;;;;;4.10;2.20;;;15.80;85.30;;;;;;4965795;28;20055;-93
2023/10/14 13:14:27;;;;;;;3.42;3.17;;;15.70;84.80;;;;;;4952676;28;20053;-92
2023/10/14 13:16:55;;;;;;;3.50;3.20;;;15.80;84.60;;;;;;4949708;29;20023;-92
2023/10/14 13:19:23;;;;;;;3.00;1.80;;;15.70;83.10;;;;;;4953738;28;20089;-95
2023/10/14 13:21:49;;;;;;;4.85;2.28;;;15.80;83.50;;;;;;4955602;29;20039;-91
2023/10/14 13:24:15;;;;;;;3.78;1.60;;;15.90;79.50;;;;;;4956573;28;20101;-91
2023/10/14 13:26:41;;;;;;;4.13;2.35;;;15.80;77.90;;;;;;4948216;28;20042;-91
2023/10/14 13:29:09;;;;;;;5.28;3.90;;;15.80;78.30;;;;;;4950147;28;20279;-91
2023/10/14 13:31:39;;;;;;;4.55;1.10;;;15.80;79.70;;;;;;4949351;29;20441;-90
2023/10/14 13:34:06;;;;;;;3.15;2.45;;;16.00;79.90;;;;;;4947455;29;20031;-90
2023/10/14 13:36:33;;;;;;;2.95;2.65;;;16.80;74.70;;;;;;4944649;28;20023;-93